createdAt,value
2022-11-16T00:00:34.734Z,94889.38
2022-11-16T00:03:36.287Z,94887.38
2022-11-16T00:06:37.895Z,94888.84
2022-11-16T00:09:39.492Z,94892.16
2022-11-16T00:12:41.017Z,94892.00
2022-11-16T00:15:42.532Z,94891.81
2022-11-16T00:18:44.932Z,94882.84
2022-11-16T00:21:46.573Z,94887.97
2022-11-16T00:24:48.070Z,94894.78
2022-11-16T00:27:49.577Z,94890.47
2022-11-16T00:30:59.147Z,94887.81
2022-11-16T00:34:00.710Z,94877.34
2022-11-16T00:37:02.240Z,94884.31
2022-11-16T00:40:04.179Z,94888.63
2022-11-16T00:43:05.704Z,94885.31
2022-11-16T00:46:07.310Z,94879.38
2022-11-16T00:49:09.635Z,94873.03
2022-11-16T00:52:11.332Z,94876.34
2022-11-16T00:55:12.850Z,94871.19
2022-11-16T00:58:15.157Z,94867.91
2022-11-16T01:01:19.509Z,94873.22
2022-11-16T01:04:21.152Z,94860.63
2022-11-16T01:07:22.752Z,94874.69
2022-11-16T01:10:26.822Z,94872.84
2022-11-16T01:13:28.376Z,94862.22
2022-11-16T01:16:29.985Z,94866.72
2022-11-16T01:19:32.024Z,94869.75
2022-11-16T01:22:37.573Z,94869.75
2022-11-16T01:25:39.120Z,94865.41
2022-11-16T01:28:40.650Z,94869.06
2022-11-16T01:31:42.864Z,94873.56
2022-11-16T01:34:44.453Z,94868.91
2022-11-16T01:37:57.350Z,94855.13
2022-11-16T01:40:59.121Z,94839.84
2022-11-16T01:44:06.555Z,94838.19
2022-11-16T01:47:17.882Z,94857.63
2022-11-16T01:50:20.963Z,94868.91
2022-11-16T01:53:26.135Z,94860.28
2022-11-16T01:56:32.814Z,94860.94
2022-11-16T01:59:45.799Z,94857.28
2022-11-16T02:02:52.104Z,94846.81
2022-11-16T02:06:32.832Z,94849.66
2022-11-16T02:10:05.896Z,94861.28
2022-11-16T02:13:28.531Z,94861.63
2022-11-16T02:16:48.365Z,94868.78
2022-11-16T02:20:24.366Z,94871.44
2022-11-16T02:23:50.187Z,94875.25
2022-11-16T02:27:27.087Z,94863.78
2022-11-16T02:30:29.620Z,94861.97
2022-11-16T02:33:36.336Z,94847.19
2022-11-16T02:36:42.162Z,94841.06
2022-11-16T02:39:47.299Z,94850.88
2022-11-16T02:43:04.927Z,94857.19
2022-11-16T02:46:16.033Z,94844.72
2022-11-16T02:49:19.624Z,94848.22
2022-11-16T02:52:23.044Z,94850.69
2022-11-16T02:55:27.382Z,94862.31
2022-11-16T02:58:30.051Z,94861.66
2022-11-16T03:01:37.023Z,94869.66
2022-11-16T03:04:47.290Z,94869.66
2022-11-16T03:07:55.164Z,94860.84
2022-11-16T03:11:23.984Z,94856.53
2022-11-16T03:14:43.948Z,94856.34
2022-11-16T03:17:50.158Z,94861.66
2022-11-16T03:21:04.938Z,94861.66
2022-11-16T03:24:07.607Z,94863.50
2022-11-16T03:27:36.089Z,94858.53
2022-11-16T03:30:43.572Z,94865.50
2022-11-16T03:33:53.976Z,94885.91
2022-11-16T03:37:00.345Z,94885.91
2022-11-16T03:40:04.627Z,94883.09
2022-11-16T03:43:08.571Z,94899.03
2022-11-16T03:46:10.440Z,94898.19
2022-11-16T03:49:12.276Z,94907.00
2022-11-16T03:52:17.671Z,94921.28
2022-11-16T03:55:19.819Z,94920.63
2022-11-16T03:58:21.894Z,94915.50
2022-11-16T04:01:23.543Z,94921.66
2022-11-16T04:04:44.546Z,94911.34
2022-11-16T04:08:07.029Z,94919.97
2022-11-16T04:11:37.988Z,94930.41
2022-11-16T04:14:58.765Z,94942.91
2022-11-16T04:18:22.020Z,94941.25
2022-11-16T04:21:47.520Z,94936.75
2022-11-16T04:24:56.204Z,94936.09
2022-11-16T04:28:14.224Z,94945.56
2022-11-16T04:31:38.879Z,94946.19
2022-11-16T04:35:04.020Z,94945.19
2022-11-16T04:38:05.665Z,94935.72
2022-11-16T04:41:29.536Z,94940.72
2022-11-16T04:44:54.215Z,94949.50
2022-11-16T04:47:58.629Z,94943.03
2022-11-16T04:51:05.005Z,94940.56
2022-11-16T04:54:07.899Z,94943.03
2022-11-16T04:57:09.460Z,94944.03
2022-11-16T05:00:11.760Z,94936.91
2022-11-16T05:03:14.675Z,94935.91
2022-11-16T05:06:19.321Z,94938.34
2022-11-16T05:09:21.149Z,94929.75
2022-11-16T05:12:25.192Z,94937.53
2022-11-16T05:15:30.913Z,94931.38
2022-11-16T05:18:34.468Z,94929.56
2022-11-16T05:21:37.140Z,94927.09
2022-11-16T05:24:38.920Z,94926.06
2022-11-16T05:27:41.242Z,94908.50
2022-11-16T05:30:45.748Z,94909.81
2022-11-16T05:33:52.139Z,94909.81
2022-11-16T05:36:54.990Z,94896.91
2022-11-16T05:39:57.074Z,94911.03
2022-11-16T05:43:07.403Z,94907.88
2022-11-16T05:46:14.622Z,94897.91
2022-11-16T05:49:16.566Z,94901.56
2022-11-16T05:52:19.154Z,94904.53
2022-11-16T05:55:20.941Z,94905.88
2022-11-16T05:58:23.311Z,94919.00
2022-11-16T06:01:26.498Z,94929.41
2022-11-16T06:04:28.270Z,94919.63
2022-11-16T06:07:30.209Z,94921.28
2022-11-16T06:10:33.321Z,94925.78
2022-11-16T06:13:35.978Z,94923.78
2022-11-16T06:16:37.841Z,94918.78
2022-11-16T06:19:42.470Z,94933.03
2022-11-16T06:22:44.043Z,94923.09
2022-11-16T06:25:46.489Z,94921.25
2022-11-16T06:28:48.325Z,94913.44
2022-11-16T06:31:50.101Z,94909.97
2022-11-16T06:34:51.916Z,94920.25
2022-11-16T06:37:53.638Z,94915.13
2022-11-16T06:44:20.549Z,94918.06
2022-11-16T06:47:30.459Z,94929.38
2022-11-16T06:50:32.770Z,94909.75
2022-11-16T06:53:34.502Z,94909.59
2022-11-16T06:56:37.083Z,94906.78
2022-11-16T06:59:38.712Z,94911.25
2022-11-16T07:02:40.599Z,94904.91
2022-11-16T07:05:45.786Z,94910.06
2022-11-16T07:08:51.126Z,94913.38
2022-11-16T07:11:58.423Z,94912.56
2022-11-16T07:15:00.059Z,94923.50
2022-11-16T07:18:07.949Z,94921.66
2022-11-16T07:21:14.726Z,94929.31
2022-11-16T07:24:17.089Z,94927.22
2022-11-16T07:27:18.693Z,94926.91
2022-11-16T07:30:23.886Z,94927.41
2022-11-16T07:33:35.117Z,94923.53
2022-11-16T07:36:59.696Z,94930.19
2022-11-16T07:40:02.042Z,94936.13
2022-11-16T07:43:05.325Z,94940.28
2022-11-16T07:49:49.350Z,94940.53
2022-11-16T07:52:55.802Z,94939.66
2022-11-16T07:55:57.989Z,94939.94
2022-11-16T07:59:01.568Z,94937.78
2022-11-16T08:02:10.252Z,94937.41
2022-11-16T08:05:13.926Z,94938.06
2022-11-16T08:08:16.391Z,94946.34
2022-11-16T08:11:18.121Z,94948.81
2022-11-16T08:14:19.838Z,94951.16
2022-11-16T08:17:24.159Z,94952.59
2022-11-16T08:20:27.510Z,94961.56
2022-11-16T08:23:30.496Z,94962.84
2022-11-16T08:26:33.143Z,94969.28
2022-11-16T08:29:40.779Z,94975.72
2022-11-16T08:32:45.496Z,94971.94
2022-11-16T08:35:48.483Z,94973.03
2022-11-16T08:38:51.154Z,94970.03
2022-11-16T08:41:54.050Z,94980.97
2022-11-16T08:44:55.746Z,94977.78
2022-11-16T08:48:03.354Z,94978.91
2022-11-16T08:51:17.972Z,94966.41
2022-11-16T08:54:28.091Z,94962.09
2022-11-16T08:57:29.968Z,94973.13
2022-11-16T09:00:34.809Z,94977.09
2022-11-16T09:03:37.971Z,94980.22
2022-11-16T09:06:39.520Z,94978.19
2022-11-16T09:09:41.031Z,94987.31
2022-11-16T09:12:42.817Z,94992.06
2022-11-16T09:15:44.944Z,94993.38
2022-11-16T09:18:48.307Z,94989.53
2022-11-16T09:21:50.412Z,94993.66
2022-11-16T09:24:51.948Z,94981.72
2022-11-16T09:27:55.511Z,94998.47
2022-11-16T09:31:01.978Z,94992.94
2022-11-16T09:34:03.767Z,94999.91
2022-11-16T09:37:05.330Z,94991.91
2022-11-16T09:40:07.579Z,94992.56
2022-11-16T09:43:28.047Z,94993.22
2022-11-16T09:46:35.751Z,94997.16
2022-11-16T09:49:47.462Z,94981.00
2022-11-16T09:52:51.395Z,94993.78
2022-11-16T09:55:56.521Z,94993.25
2022-11-16T09:59:27.618Z,94992.50
2022-11-16T10:02:43.189Z,94994.44
2022-11-16T10:06:01.214Z,94994.69
2022-11-16T10:09:02.947Z,94988.81
2022-11-16T10:12:21.120Z,94991.75
2022-11-16T10:15:56.793Z,94989.34
2022-11-16T10:19:53.871Z,94994.94
2022-11-16T10:23:11.515Z,94990.09
2022-11-16T10:26:32.067Z,94987.69
2022-11-16T10:29:55.970Z,94989.97
2022-11-16T10:33:08.060Z,94983.91
2022-11-16T10:36:15.894Z,94971.63
2022-11-16T10:39:20.419Z,94974.59
2022-11-16T10:42:34.851Z,94979.19
2022-11-16T10:45:43.049Z,94969.94
2022-11-16T10:49:16.395Z,94972.31
2022-11-16T10:52:18.168Z,94967.06
2022-11-16T10:55:21.698Z,94965.31
2022-11-16T10:58:23.211Z,94967.38
2022-11-16T11:01:27.783Z,94952.66
2022-11-16T11:04:32.767Z,94964.22
2022-11-16T11:07:38.121Z,94960.16
2022-11-16T11:10:42.832Z,94959.78
2022-11-16T11:13:44.396Z,94963.72
2022-11-16T11:16:45.931Z,94955.50
2022-11-16T11:20:16.202Z,94946.66
2022-11-16T11:23:19.987Z,94948.19
2022-11-16T11:26:35.941Z,94953.97
2022-11-16T11:29:42.345Z,94961.19
2022-11-16T11:32:44.915Z,94953.78
2022-11-16T11:36:06.556Z,94957.28
2022-11-16T11:39:28.839Z,94948.88
2022-11-16T11:42:30.674Z,94955.88
2022-11-16T11:45:45.322Z,94962.66
2022-11-16T11:48:55.226Z,94950.78
2022-11-16T11:52:03.257Z,94955.94
2022-11-16T11:55:07.513Z,94953.88
2022-11-16T11:58:18.205Z,94951.84
2022-11-16T12:01:28.840Z,94948.59
2022-11-16T12:04:58.275Z,94960.38
2022-11-16T12:08:02.548Z,94956.06
2022-11-16T12:11:39.375Z,94955.28
2022-11-16T12:15:13.527Z,94939.94
2022-11-16T12:18:14.992Z,94937.53
2022-11-16T12:21:19.248Z,94932.84
2022-11-16T12:24:47.049Z,94927.53
2022-11-16T12:28:09.654Z,94923.22
2022-11-16T12:31:48.243Z,94928.41
2022-11-16T12:35:44.016Z,94918.78
2022-11-16T12:39:09.071Z,94907.88
2022-11-16T12:42:29.184Z,94918.41
2022-11-16T12:45:52.604Z,94923.75
2022-11-16T12:49:24.245Z,94928.28
2022-11-16T12:53:23.033Z,94929.28
2022-11-16T12:56:34.240Z,94926.38
2022-11-16T13:00:01.624Z,94920.63
2022-11-16T13:03:12.073Z,94923.03
2022-11-16T13:06:20.183Z,94917.25
2022-11-16T13:09:26.441Z,94927.50
2022-11-16T13:12:30.456Z,94911.22
2022-11-16T13:15:35.896Z,94917.78
2022-11-16T13:18:41.532Z,94920.63
2022-11-16T13:22:02.646Z,94923.88
2022-11-16T13:25:17.454Z,94915.41
2022-11-16T13:28:37.929Z,94908.44
2022-11-16T13:31:53.477Z,94901.19
2022-11-16T13:34:57.197Z,94916.22
2022-11-16T13:37:58.727Z,94904.91
2022-11-16T13:41:31.362Z,94918.47
2022-11-16T13:44:33.560Z,94916.34
2022-11-16T13:47:37.062Z,94918.78
2022-11-16T13:50:38.899Z,94905.63
2022-11-16T13:54:43.331Z,94916.53
2022-11-16T13:57:24.635Z,94907.88
2022-11-16T14:00:35.743Z,94911.38
2022-11-16T14:03:39.495Z,94896.53
2022-11-16T14:06:43.808Z,94892.41
2022-11-16T14:09:48.343Z,94885.63
2022-11-16T14:12:56.644Z,94889.13
2022-11-16T14:16:19.441Z,94881.47
2022-11-16T14:19:49.238Z,94877.94
2022-11-16T14:22:58.150Z,94882.03
2022-11-16T14:26:02.464Z,94875.41
2022-11-16T14:29:27.325Z,94880.34
2022-11-16T14:32:43.354Z,94882.94
2022-11-16T14:35:52.525Z,94879.63
2022-11-16T14:38:54.156Z,94879.00
2022-11-16T14:42:00.570Z,94865.81
2022-11-16T14:45:11.790Z,94863.38
2022-11-16T14:48:17.031Z,94865.22
2022-11-16T14:51:24.625Z,94860.25
2022-11-16T14:54:26.549Z,94859.41
2022-11-16T14:57:28.523Z,94857.75
2022-11-16T15:00:30.420Z,94862.28
2022-11-16T15:03:38.939Z,94865.16
2022-11-16T15:06:47.061Z,94858.16
2022-11-16T15:09:52.397Z,94863.88
2022-11-16T15:12:55.698Z,94856.66
2022-11-16T15:16:15.674Z,94858.41
2022-11-16T15:19:17.236Z,94854.22
2022-11-16T15:22:19.115Z,94867.50
2022-11-16T15:25:26.836Z,94856.13
2022-11-16T15:28:31.639Z,94858.28
2022-11-16T15:31:34.416Z,94863.94
2022-11-16T15:34:39.200Z,94860.75
2022-11-16T15:37:40.741Z,94865.56
2022-11-16T15:41:05.547Z,94861.53
2022-11-16T15:44:14.482Z,94865.53
2022-11-16T15:47:17.176Z,94857.19
2022-11-16T15:50:19.371Z,94844.97
2022-11-16T15:53:39.412Z,94856.91
2022-11-16T15:56:41.670Z,94860.72
2022-11-16T15:59:48.676Z,94859.13
2022-11-16T16:02:51.460Z,94852.91
2022-11-16T16:05:54.562Z,94861.81
2022-11-16T16:09:06.245Z,94859.22
2022-11-16T16:12:22.426Z,94851.31
2022-11-16T16:15:36.664Z,94851.22
2022-11-16T16:18:45.473Z,94860.59
2022-11-16T16:21:47.121Z,94853.13
2022-11-16T16:24:48.653Z,94841.16
2022-11-16T16:27:50.269Z,94836.25
2022-11-16T16:30:52.405Z,94842.72
2022-11-16T16:33:55.556Z,94845.91
2022-11-16T16:36:57.229Z,94853.44
2022-11-16T16:39:58.871Z,94853.13
2022-11-16T16:43:00.398Z,94848.53
2022-11-16T16:46:03.237Z,94852.75
2022-11-16T16:49:04.744Z,94866.59
2022-11-16T16:52:07.456Z,94851.53
2022-11-16T16:55:09.112Z,94851.03
2022-11-16T16:58:13.128Z,94855.25
2022-11-16T17:01:14.754Z,94844.84
2022-11-16T17:04:16.352Z,94848.31
2022-11-16T17:07:18.026Z,94853.34
2022-11-16T17:10:19.612Z,94838.47
2022-11-16T17:13:21.115Z,94837.47
2022-11-16T17:16:23.126Z,94841.28
2022-11-16T17:19:24.781Z,94828.25
2022-11-16T17:22:26.296Z,94828.25
2022-11-16T17:25:27.946Z,94825.47
2022-11-16T17:28:29.494Z,94833.94
2022-11-16T17:31:31.183Z,94840.63
2022-11-16T17:34:33.845Z,94823.78
2022-11-16T17:37:35.382Z,94832.56
2022-11-16T17:40:37.020Z,94821.00
2022-11-16T17:43:39.091Z,94829.66
2022-11-16T17:46:40.611Z,94823.38
2022-11-16T17:49:42.259Z,94819.41
2022-11-16T17:52:43.805Z,94823.59
2022-11-16T17:55:45.344Z,94829.44
2022-11-16T17:58:47.243Z,94827.44
2022-11-16T18:01:49.534Z,94813.19
2022-11-16T18:04:51.567Z,94808.56
2022-11-16T18:07:53.205Z,94797.69
2022-11-16T18:10:54.769Z,94806.47
2022-11-16T18:14:00.367Z,94803.69
2022-11-16T18:17:01.930Z,94801.56
2022-11-16T18:20:04.785Z,94792.13
2022-11-16T18:23:06.312Z,94800.75
2022-11-16T18:26:13.705Z,94799.75
2022-11-16T18:29:18.531Z,94804.56
2022-11-16T18:32:20.117Z,94811.22
2022-11-16T18:35:21.687Z,94802.75
2022-11-16T18:38:23.281Z,94803.94
2022-11-16T18:41:27.063Z,94802.44
2022-11-16T18:44:28.581Z,94789.69
2022-11-16T18:47:30.175Z,94783.88
2022-11-16T18:50:31.704Z,94779.09
2022-11-16T18:53:33.842Z,94779.56
2022-11-16T18:56:36.231Z,94776.44
2022-11-16T18:59:38.122Z,94766.50
2022-11-16T19:02:39.624Z,94773.94
2022-11-16T19:05:41.379Z,94769.47
2022-11-16T19:08:43.484Z,94764.84
2022-11-16T19:11:45.185Z,94756.91
2022-11-16T19:14:46.708Z,94767.66
2022-11-16T19:18:19.449Z,94753.25
2022-11-16T19:21:14.772Z,94734.72
2022-11-16T19:24:16.361Z,94737.72
2022-11-16T19:27:17.855Z,94733.09
2022-11-16T19:30:19.725Z,94727.44
2022-11-16T19:33:21.344Z,94734.22
2022-11-16T19:36:24.159Z,94728.59
2022-11-16T19:39:26.561Z,94726.28
2022-11-16T19:42:28.296Z,94730.94
2022-11-16T19:45:29.863Z,94717.34
2022-11-16T19:48:34.753Z,94694.00
2022-11-16T19:51:36.383Z,94700.44
2022-11-16T19:54:37.911Z,94704.44
2022-11-16T19:57:39.439Z,94706.56
2022-11-16T20:00:40.997Z,94713.88
2022-11-16T20:03:42.740Z,94717.50
2022-11-16T20:06:44.313Z,94713.50
2022-11-16T20:09:50.540Z,94712.88
2022-11-16T20:12:56.661Z,94718.94
2022-11-16T20:16:01.249Z,94721.94
2022-11-16T20:19:03.668Z,94721.28
2022-11-16T20:22:05.220Z,94721.63
2022-11-16T20:25:06.993Z,94724.56
2022-11-16T20:28:09.498Z,94723.75
2022-11-16T20:31:16.704Z,94722.44
2022-11-16T20:34:20.264Z,94716.59
2022-11-16T20:37:21.888Z,94713.47
2022-11-16T20:40:23.468Z,94712.81
2022-11-16T20:43:24.977Z,94708.81
2022-11-16T20:46:29.231Z,94709.31
2022-11-16T20:49:30.814Z,94709.78
2022-11-16T20:52:32.320Z,94707.31
2022-11-16T20:55:33.873Z,94711.28
2022-11-16T20:58:35.561Z,94712.41
2022-11-16T21:01:37.351Z,94725.78
2022-11-16T21:04:38.940Z,94734.06
2022-11-16T21:07:41.742Z,94742.00
2022-11-16T21:10:44.079Z,94741.31
2022-11-16T21:14:05.900Z,94748.44
2022-11-16T21:17:07.462Z,94737.31
2022-11-16T21:20:26.457Z,94741.28
2022-11-16T21:23:31.769Z,94735.66
2022-11-16T21:26:34.044Z,94715.78
2022-11-16T21:29:35.543Z,94696.78
2022-11-16T21:32:37.043Z,94691.81
2022-11-16T21:35:38.577Z,94681.56
2022-11-16T21:38:40.411Z,94689.94
2022-11-16T21:41:41.960Z,94681.53
2022-11-16T21:44:43.517Z,94683.66
2022-11-16T21:47:45.057Z,94684.13
2022-11-16T21:50:46.845Z,94669.75
2022-11-16T21:53:48.726Z,94676.84
2022-11-16T21:56:50.211Z,94676.47
2022-11-16T21:59:51.728Z,94682.91
2022-11-16T22:02:53.691Z,94687.53
2022-11-16T22:06:14.737Z,94685.03
2022-11-16T22:09:16.823Z,94675.78
2022-11-16T22:12:18.310Z,94672.31
2022-11-16T22:15:19.829Z,94665.66
2022-11-16T22:18:21.345Z,94645.50
2022-11-16T22:21:22.870Z,94650.97
2022-11-16T22:24:24.374Z,94654.06
2022-11-16T22:27:25.943Z,94664.97
2022-11-16T22:30:27.528Z,94665.25
2022-11-16T22:33:29.995Z,94660.13
2022-11-16T22:36:31.512Z,94662.94
2022-11-16T22:39:33.075Z,94658.78
2022-11-16T22:42:34.589Z,94648.03
2022-11-16T22:45:36.123Z,94660.25
2022-11-16T22:48:39.658Z,94660.41
2022-11-16T22:51:41.178Z,94654.28
2022-11-16T22:54:42.691Z,94666.16
2022-11-16T22:57:44.194Z,94669.09
2022-11-16T23:00:45.691Z,94665.78
2022-11-16T23:03:47.784Z,94655.84
2022-11-16T23:06:49.519Z,94662.94
2022-11-16T23:09:51.133Z,94642.44
2022-11-16T23:13:11.902Z,94646.88
2022-11-16T23:16:13.412Z,94623.06
2022-11-16T23:19:35.979Z,94622.94
2022-11-16T23:22:56.384Z,94620.09
2022-11-16T23:26:16.393Z,94620.22
2022-11-16T23:29:17.937Z,94612.09
2022-11-16T23:32:19.438Z,94601.03
2022-11-16T23:35:21.403Z,94595.91
2022-11-16T23:38:22.918Z,94598.69
2022-11-16T23:41:43.175Z,94593.72
2022-11-16T23:44:44.711Z,94589.59
2022-11-16T23:47:46.239Z,94597.81
2022-11-16T23:50:47.895Z,94592.88
2022-11-16T23:53:53.320Z,94599.25
2022-11-16T23:56:54.917Z,94591.19
2022-11-16T23:59:56.443Z,94584.25
